Time;durP1;ratioP1;P1;durP2;ratioP2;P2;SDS_P1;SDS_P2;PMS_P1;PMS_P2;Temp;Humidity;BMP_temperature;BMP_pressure;BME280_temperature;BME280_humidity;BME280_pressure;Samples;Min_cycle;Max_cycle;Signal;HPM_P1;HPM_P2
2022/09/10 00:08:30;;;;;;;17.17;11.85;;;20.20;99.90;;;;;;4897388;29;20028;-90
2022/09/10 01:21:07;;;;;;;20.38;12.80;;;20.00;99.90;;;;;;5485373;23;20073;-89
2022/09/10 01:41:01;;;;;;;19.10;14.00;;;19.70;99.90;;;;;;4768400;30;20078;-90
2022/09/10 01:43:27;;;;;;;19.20;12.85;;;19.60;99.90;;;;;;4768116;30;20435;-88
2022/09/10 01:46:21;;;;;;;19.30;13.40;;;19.60;99.90;;;;;;4752945;30;20592;-91
2022/09/10 01:49:34;;;;;;;18.73;14.20;;;19.50;99.90;;;;;;4756845;30;20086;-90
2022/09/10 01:52:27;;;;;;;24.30;14.10;;;19.60;99.90;;;;;;4756973;30;20082;-89
2022/09/10 02:48:03;;;;;;;124.25;48.47;;;19.60;99.90;;;;;;5634658;23;20054;-87
2022/09/10 02:50:28;;;;;;;142.35;49.10;;;19.60;99.90;;;;;;4824548;29;20061;-87
2022/09/10 02:52:54;;;;;;;125.28;47.45;;;19.70;99.90;;;;;;4825525;29;20069;-88
2022/09/10 02:55:20;;;;;;;131.05;50.05;;;19.60;99.90;;;;;;4825364;29;20478;-88
2022/09/10 02:57:46;;;;;;;136.63;50.53;;;19.80;99.90;;;;;;4825795;29;20465;-89
2022/09/10 03:01:08;;;;;;;;;;;;;;;;;;;;;
2022/09/10 03:04:02;;;;;;;106.95;43.92;;;19.60;99.90;;;;;;4841047;29;20052;-88
2022/09/10 03:06:28;;;;;;;98.63;40.97;;;19.60;99.90;;;;;;4844109;29;20120;-88
2022/09/10 03:09:00;;;;;;;91.90;39.83;;;19.70;99.90;;;;;;4834455;29;20587;-88
2022/09/10 03:11:27;;;;;;;87.72;37.70;;;19.60;99.90;;;;;;4840913;29;20041;-87
2022/09/10 03:13:58;;;;;;;88.72;37.65;;;19.70;99.90;;;;;;4831521;29;20141;-90
2022/09/10 03:16:24;;;;;;;80.00;36.63;;;19.70;99.90;;;;;;4832046;29;20194;-88
2022/09/10 03:26:00;;;;;;;99.30;39.50;;;19.70;99.90;;;;;;4826486;29;20498;-87
2022/09/10 03:32:16;;;;;;;100.70;38.60;;;19.60;99.90;;;;;;4788900;30;20571;-89
2022/09/10 03:35:14;;;;;;;106.78;39.13;;;19.70;99.90;;;;;;4773846;30;20031;-89
2022/09/10 03:38:17;;;;;;;101.57;39.90;;;19.60;99.90;;;;;;4720730;30;20053;-88
2022/09/10 03:44:32;;;;;;;107.85;40.75;;;19.70;99.90;;;;;;4770461;30;20126;-90
2022/09/10 03:47:04;;;;;;;120.35;42.72;;;19.80;99.90;;;;;;4755781;30;20064;-90
2022/09/10 03:49:44;;;;;;;126.55;42.28;;;19.60;99.90;;;;;;4736993;30;20083;-87
2022/09/10 03:52:25;;;;;;;101.90;39.28;;;19.70;99.90;;;;;;4766384;30;20139;-89
2022/09/10 03:55:11;;;;;;;86.77;34.73;;;19.80;99.90;;;;;;4736735;30;20117;-91
2022/09/10 03:58:21;;;;;;;75.63;33.28;;;19.70;99.90;;;;;;4736978;30;20036;-89
2022/09/10 04:07:37;;;;;;;84.07;34.28;;;19.60;99.90;;;;;;4752492;30;20043;-88
2022/09/10 04:10:03;;;;;;;91.32;35.03;;;19.70;99.90;;;;;;4758485;30;20619;-89
2022/09/10 04:15:46;;;;;;;104.18;38.90;;;19.70;99.90;;;;;;4755069;30;20472;-86
2022/09/10 04:21:33;;;;;;;96.25;38.53;;;19.60;99.90;;;;;;4755695;30;20542;-88
2022/09/10 04:24:08;;;;;;;94.35;38.38;;;19.80;99.90;;;;;;4736630;30;20408;-88
2022/09/10 04:27:08;;;;;;;98.32;36.72;;;19.70;99.90;;;;;;4751701;30;20048;-90
2022/09/10 04:40:26;;;;;;;101.30;38.40;;;19.70;99.90;;;;;;4776118;30;20066;-88
2022/09/10 04:42:55;;;;;;;79.43;34.47;;;19.90;99.90;;;;;;4761265;30;20055;-89
2022/09/10 04:45:25;;;;;;;72.45;33.55;;;19.70;99.90;;;;;;4774907;30;20534;-86
2022/09/10 04:47:51;;;;;;;65.57;31.95;;;19.80;99.90;;;;;;4789800;29;20530;-88
2022/09/10 04:50:17;;;;;;;66.97;31.60;;;19.80;99.90;;;;;;4789564;29;20193;-89
2022/09/10 04:52:43;;;;;;;65.15;31.90;;;19.90;99.90;;;;;;4795883;29;20212;-86
2022/09/10 04:55:10;;;;;;;65.03;32.47;;;19.70;99.90;;;;;;4805245;29;20403;-87
2022/09/10 04:57:36;;;;;;;61.78;30.33;;;19.80;99.90;;;;;;4805010;29;20035;-87
2022/09/10 05:00:06;;;;;;;55.30;28.75;;;19.70;99.90;;;;;;4805444;29;20049;-88
2022/09/10 05:02:32;;;;;;;56.95;27.70;;;19.80;99.90;;;;;;4805096;29;20081;-86
2022/09/10 05:04:58;;;;;;;56.63;26.88;;;19.70;99.90;;;;;;4804907;29;20055;-85
2022/09/10 05:07:24;;;;;;;48.05;24.45;;;19.80;99.90;;;;;;4805038;29;20099;-86
2022/09/10 05:09:49;;;;;;;45.88;24.42;;;19.90;99.90;;;;;;4804916;29;20079;-85
2022/09/10 05:12:18;;;;;;;45.70;25.38;;;19.80;99.90;;;;;;4804852;29;20051;-87
2022/09/10 05:14:44;;;;;;;43.17;24.35;;;19.80;99.90;;;;;;4804999;29;20038;-83
2022/09/10 05:17:10;;;;;;;31.70;17.60;;;19.70;99.90;;;;;;4804909;29;20100;-86
2022/09/10 05:19:36;;;;;;;34.40;15.98;;;19.80;99.90;;;;;;4825113;29;20098;-84
2022/09/10 05:22:02;;;;;;;25.90;14.32;;;19.60;99.90;;;;;;4842643;29;20431;-85
2022/09/10 05:24:28;;;;;;;24.15;12.18;;;19.60;99.90;;;;;;4842183;29;20083;-85
2022/09/10 05:26:53;;;;;;;25.55;10.98;;;19.70;99.90;;;;;;4826897;29;20030;-85
2022/09/10 05:29:20;;;;;;;13.60;8.48;;;19.70;99.90;;;;;;4826959;29;20073;-86
2022/09/10 05:31:46;;;;;;;11.50;6.03;;;19.70;99.90;;;;;;4825942;29;20124;-86
2022/09/10 05:34:12;;;;;;;11.45;7.32;;;19.60;99.90;;;;;;4826874;29;20121;-85
2022/09/10 05:36:39;;;;;;;7.65;5.05;;;19.50;99.90;;;;;;4826682;29;20120;-87
2022/09/10 05:39:05;;;;;;;10.88;6.47;;;19.50;99.90;;;;;;4826863;29;20505;-87
2022/09/10 05:41:31;;;;;;;7.00;5.53;;;19.50;99.90;;;;;;4826693;29;20065;-84
2022/09/10 05:43:58;;;;;;;20.92;7.57;;;19.60;99.90;;;;;;4826812;29;20037;-86
2022/09/10 05:46:24;;;;;;;12.38;6.18;;;19.60;99.90;;;;;;4825882;29;20029;-87
2022/09/10 05:48:51;;;;;;;9.45;4.75;;;19.60;99.90;;;;;;4841655;29;20057;-85
2022/09/10 05:51:17;;;;;;;10.07;4.60;;;19.50;99.90;;;;;;4825490;29;20057;-86
2022/09/10 05:53:43;;;;;;;9.35;5.18;;;19.50;99.90;;;;;;4842796;29;20042;-86
2022/09/10 05:56:09;;;;;;;9.27;4.78;;;19.50;99.90;;;;;;4826560;29;20030;-85
2022/09/10 05:58:34;;;;;;;10.02;5.38;;;19.50;99.90;;;;;;4826392;29;20086;-85
2022/09/10 06:01:01;;;;;;;6.63;4.68;;;19.50;99.90;;;;;;4826288;29;20064;-86
2022/09/10 06:03:27;;;;;;;7.50;4.38;;;19.50;99.90;;;;;;4826817;29;20033;-85
2022/09/10 06:05:54;;;;;;;10.65;4.70;;;19.60;99.90;;;;;;4826737;29;20033;-88
2022/09/10 06:08:21;;;;;;;6.40;4.10;;;19.60;99.90;;;;;;4826549;29;20030;-87
2022/09/10 06:11:13;;;;;;;7.40;3.70;;;19.60;99.90;;;;;;4842427;29;20065;-85
2022/09/10 06:13:41;;;;;;;;;;;19.60;99.90;;;;;;4824958;29;20048;-86
2022/09/10 06:16:07;;;;;;;12.15;3.88;;;19.60;99.90;;;;;;4841684;29;20003;-85
2022/09/10 06:18:33;;;;;;;11.82;3.72;;;19.70;99.90;;;;;;4841777;29;20561;-86
2022/09/10 06:21:16;;;;;;;7.15;3.75;;;19.60;99.90;;;;;;4842903;29;20116;-89
2022/09/10 06:23:43;;;;;;;5.60;2.85;;;19.70;99.90;;;;;;4826242;29;20462;-87
2022/09/10 06:26:11;;;;;;;5.47;2.40;;;19.70;99.90;;;;;;4841621;29;20026;-86
2022/09/10 06:28:37;;;;;;;4.93;2.38;;;19.60;99.90;;;;;;4841419;29;20054;-85
2022/09/10 06:31:04;;;;;;;4.40;2.97;;;19.50;99.90;;;;;;4841469;29;20125;-87
2022/09/10 06:33:31;;;;;;;4.65;3.45;;;19.50;99.90;;;;;;4843244;29;20034;-86
2022/09/10 06:35:58;;;;;;;5.72;3.17;;;19.50;99.90;;;;;;4845001;29;20034;-86
2022/09/10 06:38:28;;;;;;;10.00;3.83;;;19.50;99.90;;;;;;4844946;29;20531;-86
2022/09/10 06:40:59;;;;;;;12.00;4.63;;;19.50;99.90;;;;;;4845040;29;20089;-87
2022/09/10 06:43:26;;;;;;;7.20;3.35;;;19.50;99.90;;;;;;4844922;29;20128;-87
2022/09/10 06:45:53;;;;;;;5.25;2.88;;;19.40;99.90;;;;;;4844742;29;20073;-87
2022/09/10 06:48:20;;;;;;;6.43;3.22;;;19.50;99.90;;;;;;4846327;29;20055;-86
2022/09/10 06:50:52;;;;;;;4.78;3.67;;;19.60;99.90;;;;;;4844319;29;20558;-87
2022/09/10 06:53:20;;;;;;;5.60;2.75;;;19.80;99.90;;;;;;4844923;29;20359;-86
2022/09/10 06:55:47;;;;;;;4.40;2.70;;;20.10;99.90;;;;;;4844768;29;20038;-85
2022/09/10 06:58:13;;;;;;;4.97;2.30;;;20.50;99.90;;;;;;4845915;29;20367;-87
2022/09/10 07:00:39;;;;;;;4.80;2.50;;;20.60;99.90;;;;;;4844750;29;20045;-86
2022/09/10 07:03:04;;;;;;;7.20;2.95;;;20.60;99.90;;;;;;4844749;29;20124;-89
2022/09/10 07:05:33;;;;;;;6.57;3.00;;;20.70;99.90;;;;;;4844423;29;20034;-89
2022/09/10 07:08:00;;;;;;;6.80;3.15;;;20.70;99.90;;;;;;4844572;29;20033;-87
2022/09/10 07:10:29;;;;;;;4.88;2.55;;;20.60;99.90;;;;;;4845663;29;20053;-88
2022/09/10 07:12:55;;;;;;;6.75;2.33;;;20.60;99.90;;;;;;4844623;29;20061;-87
2022/09/10 07:15:21;;;;;;;6.88;2.70;;;20.60;99.90;;;;;;4844491;29;20086;-86
2022/09/10 07:17:47;;;;;;;5.72;2.88;;;20.60;99.90;;;;;;4844263;29;20030;-87
2022/09/10 07:20:13;;;;;;;6.80;3.15;;;20.70;99.90;;;;;;4844263;29;20030;-87
2022/09/10 07:22:42;;;;;;;8.75;3.75;;;20.80;99.90;;;;;;4844198;29;20044;-87
2022/09/10 07:25:08;;;;;;;9.23;5.15;;;20.90;99.90;;;;;;4844105;29;20030;-87
2022/09/10 07:27:34;;;;;;;5.75;3.90;;;20.90;99.90;;;;;;4844259;29;20167;-85
2022/09/10 07:30:00;;;;;;;8.73;4.10;;;20.90;99.90;;;;;;4846438;29;20129;-85
2022/09/10 07:32:26;;;;;;;4.63;3.58;;;20.90;99.90;;;;;;4850861;29;20038;-84
2022/09/10 07:34:54;;;;;;;6.38;2.92;;;20.80;99.90;;;;;;4856510;29;20037;-84
2022/09/10 07:37:21;;;;;;;8.45;4.05;;;20.90;99.90;;;;;;4843170;29;20030;-84
2022/09/10 07:39:47;;;;;;;5.13;3.40;;;20.90;99.90;;;;;;4843140;29;20063;-84
2022/09/10 07:42:13;;;;;;;4.43;3.55;;;20.90;99.90;;;;;;4844578;29;20074;-84
2022/09/10 07:44:38;;;;;;;8.13;3.95;;;20.90;99.90;;;;;;4842920;29;20118;-82
2022/09/10 07:47:04;;;;;;;5.75;3.58;;;21.00;99.90;;;;;;4845178;29;20065;-84
2022/09/10 07:49:31;;;;;;;4.50;2.88;;;21.00;99.90;;;;;;4845001;29;20483;-84
2022/09/10 07:51:58;;;;;;;4.93;3.08;;;21.00;99.90;;;;;;4843925;29;20057;-83
2022/09/10 07:54:24;;;;;;;8.38;3.35;;;21.00;99.90;;;;;;4845165;29;20037;-84
2022/09/10 07:56:50;;;;;;;11.38;3.65;;;20.90;99.90;;;;;;4845147;29;20026;-83
2022/09/10 07:59:16;;;;;;;5.72;3.38;;;21.10;99.90;;;;;;4844694;29;20030;-83
2022/09/10 08:01:42;;;;;;;6.68;3.65;;;21.10;99.90;;;;;;4828141;29;20246;-85
2022/09/10 08:04:08;;;;;;;8.27;4.22;;;21.20;99.90;;;;;;4845017;29;20462;-85
2022/09/10 08:06:34;;;;;;;4.80;3.08;;;21.40;99.90;;;;;;4843507;29;20129;-83
2022/09/10 08:09:03;;;;;;;12.65;3.53;;;21.50;99.90;;;;;;4844492;29;20503;-83
2022/09/10 08:11:28;;;;;;;9.35;3.92;;;21.70;99.90;;;;;;4828077;29;20071;-84
2022/09/10 08:13:55;;;;;;;6.13;3.10;;;21.80;99.90;;;;;;4843044;29;20038;-84
2022/09/10 08:16:23;;;;;;;8.00;3.85;;;21.70;99.90;;;;;;4843636;29;20030;-84
2022/09/10 08:18:50;;;;;;;6.10;3.05;;;21.60;99.90;;;;;;4843308;29;20087;-83
2022/09/10 08:21:17;;;;;;;6.50;2.63;;;21.50;99.90;;;;;;4842847;29;20034;-82
2022/09/10 08:23:50;;;;;;;15.00;6.18;;;21.60;99.90;;;;;;4844607;29;20455;-85
2022/09/10 08:26:16;;;;;;;7.18;3.53;;;21.80;99.90;;;;;;4844604;29;20030;-84
2022/09/10 08:28:43;;;;;;;6.82;3.17;;;22.20;99.90;;;;;;4843054;29;20030;-85
2022/09/10 08:31:10;;;;;;;13.85;5.20;;;;;;;;;;4843353;29;20406;-83
2022/09/10 08:33:38;;;;;;;20.73;4.38;;;22.90;99.90;;;;;;4843112;29;20022;-84
2022/09/10 08:36:05;;;;;;;7.00;4.50;;;23.10;99.90;;;;;;4843860;29;20489;-84
2022/09/10 08:38:38;;;;;;;7.28;3.95;;;23.00;99.90;;;;;;4842969;29;20549;-83
2022/09/10 08:41:34;;;;;;;7.82;3.97;;;22.60;99.90;;;;;;4842913;29;20042;-82
2022/09/10 08:44:10;;;;;;;4.35;3.45;;;22.60;99.90;;;;;;4840267;29;20066;-85
2022/09/10 08:46:42;;;;;;;6.28;3.38;;;23.00;99.90;;;;;;4843763;29;20034;-82
2022/09/10 08:49:12;;;;;;;6.22;4.45;;;23.00;99.90;;;;;;4844116;29;20121;-83
2022/09/10 08:51:47;;;;;;;7.97;3.75;;;22.80;99.90;;;;;;4843883;29;20494;-82
2022/09/10 08:54:18;;;;;;;6.80;3.20;;;22.90;99.90;;;;;;4842376;29;20026;-82
2022/09/10 08:56:46;;;;;;;10.18;2.85;;;23.10;99.90;;;;;;4843678;29;20105;-83
2022/09/10 08:59:23;;;;;;;4.05;2.80;;;22.80;99.90;;;;;;4843351;29;20026;-83
2022/09/10 09:02:02;;;;;;;9.98;4.63;;;23.20;99.90;;;;;;4827244;29;20038;-82
2022/09/10 09:04:46;;;;;;;5.68;3.30;;;23.30;99.90;;;;;;4843736;29;20026;-83
2022/09/10 09:07:14;;;;;;;12.13;5.20;;;;;;;;;;4843929;29;20026;-83
2022/09/10 09:09:40;;;;;;;9.27;4.75;;;23.40;99.90;;;;;;4843678;29;20032;-83
2022/09/10 09:12:14;;;;;;;6.00;3.70;;;23.50;99.90;;;;;;4843970;29;20531;-82
2022/09/10 09:15:03;;;;;;;5.82;4.40;;;;;;;;;;4843597;29;20526;-83
2022/09/10 09:17:44;;;;;;;19.17;11.80;;;23.70;99.90;;;;;;4842338;29;20367;-82
2022/09/10 09:20:17;;;;;;;16.20;9.90;;;23.40;99.90;;;;;;4843557;29;20030;-81
2022/09/10 09:22:54;;;;;;;9.57;5.80;;;23.20;99.90;;;;;;4843262;29;20034;-83
2022/09/10 09:25:22;;;;;;;16.35;9.43;;;23.20;99.90;;;;;;4842979;29;20038;-84
2022/09/10 09:27:56;;;;;;;29.38;16.20;;;23.30;99.90;;;;;;4843431;29;20033;-85
2022/09/10 09:30:26;;;;;;;14.35;10.68;;;23.60;99.90;;;;;;4843296;29;20104;-82
2022/09/10 09:32:56;;;;;;;9.35;5.22;;;23.60;99.90;;;;;;4843609;29;20034;-83
2022/09/10 09:35:29;;;;;;;4.10;2.95;;;23.40;99.90;;;;;;4841716;29;20030;-84
2022/09/10 09:38:02;;;;;;;5.90;5.13;;;23.50;99.90;;;;;;4842638;29;20406;-84
2022/09/10 09:40:42;;;;;;;5.80;4.50;;;23.60;99.90;;;;;;4842556;29;20034;-85
2022/09/10 09:43:35;;;;;;;5.47;3.70;;;23.90;99.90;;;;;;4842528;29;20030;-85
2022/09/10 09:46:03;;;;;;;6.78;3.63;;;24.00;99.90;;;;;;4841205;29;20086;-83
2022/09/10 09:48:38;;;;;;;4.68;3.30;;;23.80;99.90;;;;;;4842412;29;20029;-86
2022/09/10 09:51:04;;;;;;;9.90;3.65;;;23.80;99.90;;;;;;4842227;29;20501;-83
2022/09/10 09:53:30;;;;;;;7.43;3.50;;;24.00;99.90;;;;;;4842033;29;20074;-84
2022/09/10 09:56:26;;;;;;;4.75;3.80;;;;;;;;;;4841236;29;20116;-83
2022/09/10 09:58:52;;;;;;;10.43;6.18;;;;;;;;;;4832608;29;20037;-83
2022/09/10 10:01:20;;;;;;;9.05;4.75;;;;;;;;;;4842261;29;20037;-84
2022/09/10 10:03:51;;;;;;;4.43;4.03;;;;;;;;;;4842133;29;20026;-82
2022/09/10 10:06:18;;;;;;;4.47;3.65;;;;;;;;;;4840972;29;20033;-86
2022/09/10 10:09:05;;;;;;;7.72;3.53;;;;;;;;;;4845566;29;20121;-85
2022/09/10 10:11:58;;;;;;;11.30;8.32;;;;;;;;;;4846798;29;20030;-84
2022/09/10 10:14:24;;;;;;;9.75;6.00;;;;;;;;;;4846397;29;20486;-84
2022/09/10 10:16:53;;;;;;;6.57;5.80;;;;;;;;;;4846800;29;20034;-83
2022/09/10 10:19:28;;;;;;;6.15;2.78;;;;;;;;;;4848460;29;20086;-85
2022/09/10 10:21:54;;;;;;;7.50;4.75;;;;;;;;;;4848130;29;20474;-83
2022/09/10 10:24:31;;;;;;;7.47;6.07;;;;;;;;;;4847915;29;20022;-85
2022/09/10 10:26:58;;;;;;;5.28;4.85;;;;;;;;;;4847368;29;20424;-85
2022/09/10 10:29:24;;;;;;;5.18;3.97;;;;;;;;;;4847078;29;20121;-84
2022/09/10 10:31:52;;;;;;;4.57;4.18;;;;;;;;;;4847922;29;20030;-82
2022/09/10 10:34:24;;;;;;;9.48;3.83;;;;;;;;;;4848975;29;20026;-83
2022/09/10 10:36:56;;;;;;;7.32;5.38;;;;;;;;;;4848632;29;20430;-83
2022/09/10 10:39:25;;;;;;;3.28;2.97;;;;;;;;;;4848970;29;20026;-84
2022/09/10 10:42:05;;;;;;;7.47;1.70;;;;;;;;;;4848705;29;20095;-82
2022/09/10 10:45:01;;;;;;;4.53;3.70;;;;;;;;;;4848450;29;20026;-80
2022/09/10 10:47:39;;;;;;;5.63;3.50;;;;;;;;;;4826528;29;20034;-81
2022/09/10 10:50:08;;;;;;;3.65;1.80;;;;;;;;;;4848644;29;20057;-83
2022/09/10 10:52:57;;;;;;;3.45;2.70;;;24.60;99.90;;;;;;4848834;29;20034;-82
2022/09/10 10:55:25;;;;;;;5.32;3.50;;;24.30;99.90;;;;;;4848837;29;20038;-82
2022/09/10 10:58:08;;;;;;;7.65;4.68;;;24.00;99.90;;;;;;4848732;29;20034;-81
2022/09/10 11:00:41;;;;;;;5.95;5.45;;;;;;;;;;4848662;29;20056;-82
2022/09/10 11:03:47;;;;;;;5.30;4.80;;;;;;;;;;4848321;29;20030;-83
2022/09/10 11:06:15;;;;;;;7.70;5.10;;;;;;;;;;4832286;29;20055;-82
2022/09/10 11:08:50;;;;;;;6.53;5.50;;;;;;;;;;4847306;29;20030;-82
2022/09/10 11:11:18;;;;;;;8.13;4.97;;;;;;;;;;4848620;29;20042;-81
2022/09/10 11:13:49;;;;;;;6.65;5.22;;;;;;;;;;4848395;29;20088;-82
2022/09/10 11:16:20;;;;;;;6.60;5.37;;;;;;;;;;4848581;29;20029;-80
2022/09/10 11:18:51;;;;;;;7.53;6.10;;;;;;;;;;4847713;29;20246;-85
2022/09/10 11:21:30;;;;;;;4.80;4.05;;;;;;;;;;4845678;29;20474;-81
2022/09/10 11:23:56;;;;;;;8.48;4.75;;;;;;;;;;4845329;29;20479;-81
2022/09/10 11:26:43;;;;;;;7.95;6.18;;;;;;;;;;4844606;29;20026;-81
2022/09/10 11:29:21;;;;;;;9.48;8.07;;;;;;;;;;4843846;29;20090;-82
2022/09/10 11:31:59;;;;;;;9.80;8.73;;;;;;;;;;4845289;29;20025;-83
2022/09/10 11:34:51;;;;;;;6.47;5.85;;;;;;;;;;4845170;29;20151;-82
2022/09/10 11:37:26;;;;;;;8.52;7.70;;;;;;;;;;4843955;29;20040;-83
2022/09/10 11:39:55;;;;;;;8.32;6.35;;;;;;;;;;4845204;29;20041;-81
2022/09/10 11:42:25;;;;;;;7.50;7.00;;;;;;;;;;4844896;29;20026;-83
2022/09/10 11:44:54;;;;;;;6.13;4.53;;;;;;;;;;4845098;29;20025;-83
2022/09/10 11:47:30;;;;;;;6.18;5.60;;;;;;;;;;4843704;29;20033;-83
2022/09/10 11:50:09;;;;;;;6.90;2.50;;;;;;;;;;4843371;29;20488;-84
2022/09/10 11:52:36;;;;;;;9.13;6.15;;;;;;;;;;4844927;29;20533;-81
2022/09/10 11:55:04;;;;;;;9.60;4.72;;;;;;;;;;4844541;29;20091;-82
2022/09/10 11:57:48;;;;;;;8.38;5.93;;;;;;;;;;4844771;29;20493;-81
2022/09/10 12:00:16;;;;;;;6.13;4.15;;;;;;;;;;4843595;29;20048;-85
2022/09/10 12:02:48;;;;;;;4.55;3.08;;;;;;;;;;4844262;29;20116;-83
2022/09/10 12:05:14;;;;;;;7.10;4.35;;;;;;;;;;4844426;29;20033;-82
2022/09/10 12:07:43;;;;;;;6.80;4.93;;;;;;;;;;4844360;29;20033;-82
2022/09/10 12:10:10;;;;;;;6.88;3.67;;;;;;;;;;4844453;29;20439;-82
2022/09/10 12:12:39;;;;;;;6.47;5.90;;;;;;;;;;4843243;29;20050;-83
2022/09/10 12:15:24;;;;;;;7.75;7.00;;;;;;;;;;4844412;29;20026;-82
2022/09/10 12:17:56;;;;;;;7.65;5.78;;;;;;;;;;4844336;29;20022;-82
2022/09/10 12:20:27;;;;;;;3.78;2.00;;;;;;;;;;4844472;29;20034;-83
2022/09/10 12:22:54;;;;;;;6.70;4.83;;;;;;;;;;4842887;29;20038;-82
2022/09/10 12:25:20;;;;;;;7.43;5.93;;;;;;;;;;4843062;29;20059;-82
2022/09/10 12:27:47;;;;;;;5.03;2.28;;;;;;;;;;4844230;29;20034;-83
2022/09/10 12:30:34;;;;;;;5.20;4.72;;;;;;;;;;4843819;29;20105;-83
2022/09/10 12:33:01;;;;;;;5.47;4.32;;;;;;;;;;4844210;29;20078;-82
2022/09/10 12:35:34;;;;;;;8.07;4.80;;;;;;;;;;4843987;29;20477;-81
2022/09/10 12:38:18;;;;;;;8.18;5.93;;;;;;;;;;4843623;29;20374;-83
2022/09/10 12:40:49;;;;;;;12.32;7.90;;;;;;;;;;4843867;29;20026;-84
2022/09/10 12:43:34;;;;;;;9.25;5.47;;;;;;;;;;4843642;29;20053;-82
2022/09/10 12:46:21;;;;;;;9.63;5.43;;;;;;;;;;4843679;29;20389;-79
2022/09/10 12:48:49;;;;;;;9.65;6.00;;;;;;;;;;4843817;29;20549;-82
2022/09/10 12:51:18;;;;;;;8.02;6.80;;;;;;;;;;4827648;29;20264;-82
2022/09/10 12:53:57;;;;;;;5.88;5.10;;;;;;;;;;4825492;29;20031;-81
2022/09/10 12:56:39;;;;;;;8.70;6.30;;;;;;;;;;4825330;29;20041;-83
2022/09/10 12:59:17;;;;;;;8.15;7.35;;;;;;;;;;4825075;29;20378;-82
2022/09/10 13:01:45;;;;;;;8.23;7.07;;;;;;;;;;4825174;29;20086;-83
2022/09/10 13:04:20;;;;;;;20.42;13.07;;;;;;;;;;4824877;29;20031;-82
2022/09/10 13:06:47;;;;;;;6.38;5.90;;;;;;;;;;4839085;29;20031;-79
2022/09/10 13:09:33;;;;;;;8.15;4.68;;;;;;;;;;4825091;29;20063;-79
2022/09/10 13:12:03;;;;;;;6.18;4.72;;;;;;;;;;4825339;29;20087;-81
2022/09/10 13:14:37;;;;;;;13.32;8.10;;;;;;;;;;4824185;29;20394;-79
2022/09/10 13:17:04;;;;;;;5.07;4.38;;;;;;;;;;4838892;29;20105;-80
2022/09/10 13:19:30;;;;;;;6.10;5.22;;;;;;;;;;4823916;29;20029;-80
2022/09/10 13:21:56;;;;;;;5.35;4.90;;;;;;;;;;4824775;29;20418;-82
2022/09/10 13:24:35;;;;;;;4.38;3.95;;;;;;;;;;4825851;29;20026;-83
2022/09/10 13:27:19;;;;;;;2.85;0.80;;;;;;;;;;4825329;29;20031;-83
2022/09/10 13:30:15;;;;;;;3.58;2.75;;;;;;;;;;4840594;29;20094;-83
2022/09/10 13:32:44;;;;;;;8.07;5.00;;;;;;;;;;4829398;29;20074;-83
2022/09/10 13:35:19;;;;;;;9.60;7.53;;;;;;;;;;4840914;29;20070;-83
2022/09/10 13:38:03;;;;;;;5.53;5.00;;;;;;;;;;4840936;29;20034;-84
2022/09/10 13:40:33;;;;;;;10.15;4.90;;;;;;;;;;4841301;29;20109;-84
2022/09/10 13:43:14;;;;;;;7.13;4.80;;;;;;;;;;4840112;29;20048;-82
2022/09/10 13:45:41;;;;;;;8.25;7.30;;;;;;;;;;4840975;29;20038;-84
2022/09/10 13:48:27;;;;;;;6.57;6.05;;;;;;;;;;4840619;29;20154;-81
2022/09/10 13:51:05;;;;;;;6.55;5.05;;;;;;;;;;4840878;29;20100;-80
2022/09/10 13:53:33;;;;;;;4.60;4.15;;;;;;;;;;4840744;29;20034;-82
2022/09/10 13:56:07;;;;;;;5.75;5.13;;;;;;;;;;4841059;29;20029;-81
2022/09/10 13:58:35;;;;;;;5.70;5.13;;;;;;;;;;4840838;29;20105;-81
2022/09/10 14:01:02;;;;;;;5.28;4.70;;;;;;;;;;4840502;29;20038;-82
2022/09/10 14:03:33;;;;;;;6.97;6.05;;;;;;;;;;4840862;29;20090;-81
2022/09/10 14:06:06;;;;;;;5.20;4.22;;;;;;;;;;4840428;29;20022;-81
2022/09/10 14:08:42;;;;;;;11.18;5.30;;;;;;;;;;4840530;29;20101;-81
2022/09/10 14:11:11;;;;;;;9.93;5.68;;;;;;;;;;4840844;29;20046;-81
2022/09/10 14:13:46;;;;;;;7.80;4.85;;;;;;;;;;4840539;29;20033;-80
2022/09/10 14:16:17;;;;;;;4.05;3.75;;;;;;;;;;4840504;29;20125;-82
2022/09/10 14:18:52;;;;;;;4.90;4.40;;;;;;;;;;4840140;29;20438;-83
2022/09/10 14:21:25;;;;;;;6.32;4.43;;;;;;;;;;4822587;29;20049;-82
2022/09/10 14:23:54;;;;;;;5.03;4.35;;;;;;;;;;4824757;29;20031;-81
2022/09/10 14:26:25;;;;;;;8.15;7.35;;;;;;;;;;4838587;29;20026;-81
2022/09/10 14:29:01;;;;;;;5.03;4.57;;;;;;;;;;4824607;29;20031;-82
2022/09/10 14:31:29;;;;;;;4.70;4.38;;;;;;;;;;4825062;29;20030;-82
2022/09/10 14:33:58;;;;;;;4.50;4.10;;;;;;;;;;4823556;29;20026;-82
2022/09/10 14:36:27;;;;;;;5.55;5.05;;;;;;;;;;4823933;29;20532;-82
2022/09/10 14:39:03;;;;;;;6.20;5.70;;;;;;;;;;4822673;29;20467;-82
2022/09/10 14:41:30;;;;;;;6.25;5.55;;;;;;;;;;4823655;29;20038;-82
2022/09/10 14:44:19;;;;;;;7.80;5.38;;;;;;;;;;4837711;29;20038;-83
2022/09/10 14:46:57;;;;;;;11.88;5.25;;;;;;;;;;4817274;29;20129;-82
2022/09/10 14:49:33;;;;;;;6.43;5.78;;;;;;;;;;4823208;29;20041;-82
2022/09/10 14:52:00;;;;;;;5.43;4.90;;;;;;;;;;4822683;29;20035;-82
2022/09/10 14:54:26;;;;;;;5.60;5.20;;;;;;;;;;4824078;29;20463;-83
2022/09/10 14:56:53;;;;;;;6.43;5.85;;;;;;;;;;4826709;29;20459;-82
2022/09/10 14:59:22;;;;;;;7.25;5.07;;;;;;;;;;4827146;29;20034;-83
2022/09/10 15:01:50;;;;;;;5.07;4.70;;;;;;;;;;4840755;29;20035;-84
2022/09/10 15:04:25;;;;;;;4.43;3.67;;;;;;;;;;4827039;29;20074;-84
2022/09/10 15:06:51;;;;;;;5.78;3.40;;;;;;;;;;4826438;29;20045;-83
2022/09/10 15:09:18;;;;;;;6.10;3.72;;;;;;;;;;4826927;29;20037;-83
2022/09/10 15:11:49;;;;;;;3.72;3.35;;;;;;;;;;4840582;29;20031;-82
2022/09/10 15:14:16;;;;;;;5.05;4.55;;;;;;;;;;4826700;29;20038;-82
2022/09/10 15:16:42;;;;;;;4.50;3.25;;;25.80;81.50;;;;;;4826565;29;20026;-81
2022/09/10 15:19:10;;;;;;;4.20;2.92;;;25.70;81.50;;;;;;4826917;29;20073;-82
2022/09/10 15:21:37;;;;;;;2.35;1.55;;;25.30;84.90;;;;;;4809942;29;20062;-83
2022/09/10 15:24:03;;;;;;;11.40;2.38;;;25.10;88.00;;;;;;4826710;29;20036;-82
2022/09/10 15:26:28;;;;;;;6.55;4.78;;;24.90;90.60;;;;;;4826250;29;20441;-83
2022/09/10 15:28:54;;;;;;;12.93;5.90;;;24.80;92.40;;;;;;4826527;29;20101;-81
2022/09/10 15:31:22;;;;;;;8.60;4.30;;;24.60;95.60;;;;;;4824876;29;20497;-82
2022/09/10 15:33:48;;;;;;;6.28;3.63;;;24.60;94.70;;;;;;4810093;29;20070;-82
2022/09/10 15:36:13;;;;;;;7.93;3.53;;;24.50;97.30;;;;;;4826105;29;20077;-81
2022/09/10 15:38:39;;;;;;;5.20;4.20;;;24.50;99.90;;;;;;4826257;29;20479;-81
2022/09/10 15:41:08;;;;;;;6.72;4.25;;;24.40;99.90;;;;;;4826458;29;20062;-81
2022/09/10 15:43:37;;;;;;;5.15;3.67;;;24.30;99.90;;;;;;4826123;29;20058;-81
2022/09/10 15:46:04;;;;;;;4.90;3.03;;;24.20;99.90;;;;;;4809892;29;20038;-81
2022/09/10 15:48:32;;;;;;;4.15;3.13;;;24.20;99.90;;;;;;4826500;29;20030;-82
2022/09/10 15:51:08;;;;;;;7.38;3.30;;;24.10;99.90;;;;;;4840045;29;20055;-81
2022/09/10 15:53:34;;;;;;;3.97;3.58;;;24.10;99.90;;;;;;4825951;29;20087;-81
2022/09/10 15:56:06;;;;;;;6.88;3.20;;;24.10;99.90;;;;;;4826302;29;20031;-80
2022/09/10 15:58:32;;;;;;;;;;;24.00;99.90;;;;;;4826287;29;20087;-81
2022/09/10 16:01:07;;;;;;;4.95;3.83;;;23.90;99.90;;;;;;4826119;29;19944;-81
2022/09/10 16:03:33;;;;;;;3.95;3.60;;;23.90;99.90;;;;;;4825927;29;20030;-81
2022/09/10 16:06:05;;;;;;;3.78;3.22;;;23.80;99.90;;;;;;4825235;29;20526;-81
2022/09/10 16:08:31;;;;;;;;;;;23.80;99.90;;;;;;4826160;29;20023;-82
2022/09/10 16:10:58;;;;;;;5.28;2.70;;;23.70;99.90;;;;;;4824642;29;19916;-82
2022/09/10 16:13:27;;;;;;;5.40;4.57;;;23.60;99.90;;;;;;4824726;29;20086;-82
2022/09/10 16:16:02;;;;;;;6.40;4.07;;;23.70;99.90;;;;;;4825574;29;20083;-82
2022/09/10 16:18:30;;;;;;;7.78;4.38;;;23.60;99.90;;;;;;4825070;29;20026;-82
2022/09/10 16:21:10;;;;;;;8.52;4.30;;;23.60;99.90;;;;;;4824606;29;20048;-82
2022/09/10 16:23:37;;;;;;;7.50;5.72;;;23.60;99.90;;;;;;4825714;29;20394;-81
2022/09/10 16:26:04;;;;;;;9.82;6.53;;;23.50;99.90;;;;;;4825571;29;20027;-82
2022/09/10 16:28:31;;;;;;;7.38;6.20;;;23.50;99.90;;;;;;4824542;29;20030;-82
2022/09/10 16:31:08;;;;;;;6.35;5.70;;;23.50;99.90;;;;;;4825623;29;20026;-82
2022/09/10 16:33:34;;;;;;;9.05;5.15;;;23.50;99.90;;;;;;4839416;29;20030;-83
2022/09/10 16:36:03;;;;;;;7.28;4.65;;;23.40;99.90;;;;;;4825442;29;20113;-83
2022/09/10 16:38:29;;;;;;;5.10;4.00;;;23.40;99.90;;;;;;4825246;29;20094;-83
2022/09/10 16:41:01;;;;;;;6.82;4.75;;;23.40;99.90;;;;;;4825452;29;20027;-82
2022/09/10 16:43:31;;;;;;;9.55;4.30;;;23.40;99.90;;;;;;4808919;29;20074;-82
2022/09/10 16:45:57;;;;;;;9.43;2.08;;;23.30;99.90;;;;;;4809012;29;20038;-84
2022/09/10 16:48:23;;;;;;;4.68;4.10;;;23.30;99.90;;;;;;4825203;29;20083;-82
2022/09/10 16:50:48;;;;;;;7.57;4.50;;;23.30;99.90;;;;;;4825189;29;20058;-82
2022/09/10 16:53:14;;;;;;;8.35;5.35;;;23.30;99.90;;;;;;4823940;29;20125;-81
2022/09/10 16:55:40;;;;;;;6.43;4.13;;;23.20;99.90;;;;;;4824829;29;20041;-81